createdAt,value
2016-12-18T00:00:12.619Z,0
2016-12-18T00:01:22.954Z,0
2016-12-18T00:02:32.951Z,0
2016-12-18T00:03:43.285Z,0
2016-12-18T00:04:53.613Z,0
2016-12-18T00:06:04.030Z,0
2016-12-18T00:07:14.066Z,0
2016-12-18T00:08:24.157Z,0
2016-12-18T00:09:34.509Z,0
2016-12-18T00:10:44.842Z,0
2016-12-18T00:11:55.203Z,0
2016-12-18T00:13:05.215Z,0
2016-12-18T00:14:14.927Z,0
2016-12-18T00:15:24.938Z,0
2016-12-18T00:16:35.266Z,0
2016-12-18T00:17:45.337Z,0
2016-12-18T00:18:55.663Z,0
2016-12-18T00:20:05.709Z,0
2016-12-18T00:21:16.042Z,0
2016-12-18T00:22:25.763Z,0
2016-12-18T00:23:36.119Z,0
2016-12-18T00:24:46.449Z,0
2016-12-18T00:25:56.488Z,0
2016-12-18T00:27:06.825Z,0
2016-12-18T00:28:17.159Z,0
2016-12-18T00:29:27.185Z,0
2016-12-18T00:30:37.214Z,0
2016-12-18T00:31:47.535Z,0
2016-12-18T00:32:57.881Z,0
2016-12-18T00:34:07.931Z,0
2016-12-18T00:35:17.972Z,0
2016-12-18T00:36:28.016Z,0
2016-12-18T00:37:38.355Z,0
2016-12-18T00:38:48.401Z,0
2016-12-18T00:39:58.748Z,0
2016-12-18T00:41:08.771Z,0
2016-12-18T00:42:18.811Z,0
2016-12-18T00:43:28.814Z,0
2016-12-18T00:44:38.823Z,0
2016-12-18T00:45:48.835Z,0
2016-12-18T00:46:59.177Z,0
2016-12-18T00:48:09.231Z,0
2016-12-18T00:49:19.262Z,0
2016-12-18T00:50:29.613Z,0
2016-12-18T00:51:39.616Z,0
2016-12-18T00:52:49.961Z,0
2016-12-18T00:54:00.296Z,0
2016-12-18T00:55:10.627Z,0
2016-12-18T00:56:20.628Z,0
2016-12-18T00:57:30.661Z,0
2016-12-18T00:58:40.670Z,0
2016-12-18T00:59:50.703Z,0
2016-12-18T01:01:00.708Z,0
2016-12-18T01:02:11.059Z,0
2016-12-18T01:03:21.387Z,0
2016-12-18T01:04:31.406Z,0
2016-12-18T01:05:41.413Z,0
2016-12-18T01:06:51.739Z,0
2016-12-18T01:08:01.750Z,0
2016-12-18T01:09:11.772Z,0
2016-12-18T01:10:21.801Z,0
2016-12-18T01:11:31.519Z,0
2016-12-18T01:12:41.843Z,0
2016-12-18T01:13:52.188Z,0
2016-12-18T01:15:02.507Z,0
2016-12-18T01:16:12.517Z,0
2016-12-18T01:17:22.842Z,0
2016-12-18T01:18:32.866Z,0
2016-12-18T01:19:42.867Z,0
2016-12-18T01:20:52.252Z,0
2016-12-18T01:22:02.580Z,0
2016-12-18T01:23:12.602Z,0
2016-12-18T01:24:22.319Z,0
2016-12-18T01:25:32.325Z,0
2016-12-18T01:26:42.652Z,0
2016-12-18T01:27:52.666Z,0
2016-12-18T01:29:02.681Z,0
2016-12-18T01:30:13.001Z,0
2016-12-18T01:31:23.008Z,0
2016-12-18T01:32:33.332Z,0
2016-12-18T01:33:43.648Z,0
2016-12-18T01:34:53.976Z,0
2016-12-18T01:36:04.295Z,0
2016-12-18T01:37:14.613Z,0
2016-12-18T01:38:24.932Z,0
2016-12-18T01:39:34.933Z,0
2016-12-18T01:40:44.961Z,0
2016-12-18T01:41:54.966Z,0
2016-12-18T01:43:04.985Z,0
2016-12-18T01:44:15.309Z,0
2016-12-18T01:45:25.314Z,0
2016-12-18T01:46:35.633Z,0
2016-12-18T01:47:45.643Z,0
2016-12-18T01:48:55.385Z,0
2016-12-18T01:50:05.717Z,0
2016-12-18T01:51:15.413Z,0
2016-12-18T01:52:25.418Z,0
2016-12-18T01:53:35.740Z,0
2016-12-18T01:54:46.108Z,0
2016-12-18T01:55:56.429Z,0
2016-12-18T01:57:06.128Z,0
2016-12-18T01:58:16.457Z,0
2016-12-18T01:59:26.470Z,0
2016-12-18T02:00:36.791Z,0
2016-12-18T02:01:47.114Z,0
2016-12-18T02:02:57.126Z,0
2016-12-18T02:04:07.127Z,0
2016-12-18T02:05:16.833Z,0
2016-12-18T02:06:26.860Z,0
2016-12-18T02:07:36.877Z,0
2016-12-18T02:08:46.908Z,0
2016-12-18T02:09:57.231Z,0
2016-12-18T02:11:07.253Z,0
2016-12-18T02:12:17.270Z,0
2016-12-18T02:13:27.005Z,0
2016-12-18T02:14:37.324Z,0
2016-12-18T02:15:47.664Z,0
2016-12-18T02:16:57.385Z,0
2016-12-18T02:18:07.707Z,0
2016-12-18T02:19:18.039Z,0
2016-12-18T02:20:28.366Z,0
2016-12-18T02:21:38.721Z,0
2016-12-18T02:22:49.049Z,0
2016-12-18T02:23:58.747Z,0
2016-12-18T02:25:08.758Z,0
2016-12-18T02:26:19.087Z,0
2016-12-18T02:27:29.087Z,0
2016-12-18T02:28:39.398Z,0
2016-12-18T02:29:49.413Z,0
2016-12-18T02:30:59.418Z,0
2016-12-18T02:32:09.426Z,0
2016-12-18T02:33:19.742Z,0
2016-12-18T02:34:29.436Z,0
2016-12-18T02:35:39.477Z,0
2016-12-18T02:36:49.793Z,0
2016-12-18T02:38:00.111Z,0
2016-12-18T02:39:10.427Z,0
2016-12-18T02:40:20.744Z,0
2016-12-18T02:41:30.770Z,0
2016-12-18T02:42:41.096Z,0
2016-12-18T02:43:51.106Z,0
2016-12-18T02:45:01.160Z,0
2016-12-18T02:46:11.163Z,0
2016-12-18T02:47:21.476Z,0
2016-12-18T02:48:31.185Z,0
2016-12-18T02:49:41.512Z,0
2016-12-18T02:50:51.209Z,0
2016-12-18T02:52:00.900Z,0
2016-12-18T02:53:11.227Z,0
2016-12-18T02:54:21.588Z,0
2016-12-18T02:55:31.601Z,0
2016-12-18T02:56:41.627Z,0
2016-12-18T02:57:51.639Z,0
2016-12-18T02:59:01.361Z,0
2016-12-18T03:00:11.689Z,0
2016-12-18T03:01:21.698Z,0
2016-12-18T03:33:20.511Z,0
2016-12-18T03:34:30.862Z,0
2016-12-18T03:35:40.872Z,0
2016-12-18T03:36:50.892Z,0
2016-12-18T03:38:00.899Z,0
2016-12-18T03:39:11.226Z,0
2016-12-18T03:40:21.535Z,0
2016-12-18T03:41:31.854Z,0
2016-12-18T03:42:42.171Z,0
2016-12-18T03:43:52.493Z,0
2016-12-18T03:45:02.808Z,0
2016-12-18T03:46:13.132Z,0
2016-12-18T03:47:23.442Z,0
2016-12-18T03:48:33.479Z,0
2016-12-18T03:49:43.502Z,0
2016-12-18T03:50:53.231Z,0
2016-12-18T03:52:03.233Z,0
2016-12-18T03:53:13.228Z,0
2016-12-18T03:54:22.931Z,0
2016-12-18T03:55:33.289Z,0
2016-12-18T03:56:43.295Z,0
2016-12-18T03:57:53.609Z,0
2016-12-18T03:59:03.304Z,0
2016-12-18T04:00:13.314Z,0
2016-12-18T04:01:23.256Z,0
2016-12-18T04:02:33.578Z,0
2016-12-18T04:03:43.895Z,0
2016-12-18T04:04:53.912Z,0
2016-12-18T04:06:04.218Z,0
2016-12-18T04:07:14.555Z,0
2016-12-18T04:08:24.576Z,0
2016-12-18T04:09:34.889Z,0
2016-12-18T04:10:45.465Z,0
2016-12-18T04:11:55.166Z,0
2016-12-18T04:13:05.183Z,0
2016-12-18T04:14:15.198Z,0
2016-12-18T04:15:25.208Z,0
2016-12-18T04:16:35.558Z,0
2016-12-18T04:17:45.890Z,0
2016-12-18T04:18:55.903Z,0
2016-12-18T04:20:05.922Z,0
2016-12-18T04:21:15.620Z,0
2016-12-18T04:22:25.993Z,0
2016-12-18T04:23:36.333Z,0
2016-12-18T04:24:46.060Z,0
2016-12-18T04:25:56.076Z,0
2016-12-18T04:27:06.089Z,0
2016-12-18T04:28:15.790Z,0
2016-12-18T04:29:25.802Z,0
2016-12-18T04:30:36.156Z,0
2016-12-18T04:31:46.480Z,0
2016-12-18T04:32:56.491Z,0
2016-12-18T04:34:06.824Z,0
2016-12-18T04:35:17.161Z,0
2016-12-18T04:36:26.858Z,0
2016-12-18T04:37:36.908Z,0
2016-12-18T04:38:47.250Z,0
2016-12-18T04:39:57.571Z,0
2016-12-18T04:41:07.901Z,0
2016-12-18T04:42:17.605Z,0
2016-12-18T04:43:27.299Z,0
2016-12-18T04:44:37.644Z,0
2016-12-18T04:45:47.710Z,0
2016-12-18T04:46:57.717Z,0
2016-12-18T04:48:07.428Z,0
2016-12-18T04:49:17.750Z,0
2016-12-18T04:50:27.752Z,0
2016-12-18T04:51:37.449Z,0
2016-12-18T04:52:47.156Z,0
2016-12-18T04:53:57.537Z,0
2016-12-18T04:55:07.864Z,0
2016-12-18T04:56:18.195Z,0
2016-12-18T04:57:28.530Z,0
2016-12-18T04:58:38.549Z,0
2016-12-18T04:59:48.250Z,0
2016-12-18T05:00:58.594Z,0
2016-12-18T05:02:08.595Z,0
2016-12-18T05:03:18.606Z,0
2016-12-18T05:04:28.317Z,0
2016-12-18T05:05:38.334Z,0
2016-12-18T05:06:48.331Z,0
2016-12-18T05:07:58.688Z,0
2016-12-18T05:09:08.731Z,0
2016-12-18T05:10:18.752Z,0
2016-12-18T05:11:29.117Z,0
2016-12-18T05:12:39.449Z,0
2016-12-18T05:13:49.801Z,0
2016-12-18T05:14:59.812Z,0
2016-12-18T05:16:09.818Z,0
2016-12-18T05:17:20.140Z,0
2016-12-18T05:18:30.149Z,0
2016-12-18T05:19:40.162Z,0
2016-12-18T05:20:50.176Z,0
2016-12-18T05:22:00.189Z,0
2016-12-18T05:23:10.520Z,0
2016-12-18T05:24:20.552Z,0
2016-12-18T05:25:30.253Z,0
2016-12-18T05:26:39.952Z,0
2016-12-18T05:27:49.657Z,0
2016-12-18T05:28:59.378Z,0
2016-12-18T05:30:09.396Z,0
2016-12-18T05:31:19.101Z,0
2016-12-18T05:32:29.124Z,0
2016-12-18T05:33:39.131Z,0
2016-12-18T05:34:49.137Z,0
2016-12-18T05:35:59.502Z,0
2016-12-18T05:37:09.197Z,0
2016-12-18T05:38:18.892Z,0
2016-12-18T05:39:29.228Z,0
2016-12-18T05:40:38.920Z,0
2016-12-18T05:41:49.238Z,0
2016-12-18T05:42:59.569Z,0
2016-12-18T05:44:09.585Z,0
2016-12-18T05:45:19.924Z,0
2016-12-18T05:46:29.934Z,0
2016-12-18T05:47:39.661Z,0
2016-12-18T05:48:49.703Z,0
2016-12-18T05:49:59.749Z,0
2016-12-18T05:51:10.101Z,0
2016-12-18T05:52:20.414Z,0
2016-12-18T05:53:30.775Z,0
2016-12-18T05:54:40.791Z,0
2016-12-18T05:55:50.799Z,0
2016-12-18T05:57:00.515Z,0
2016-12-18T05:58:10.526Z,0
2016-12-18T05:59:20.538Z,0
2016-12-18T06:00:30.241Z,0
2016-12-18T06:01:40.557Z,0
2016-12-18T06:02:50.623Z,0
2016-12-18T06:04:00.986Z,0
2016-12-18T06:05:11.317Z,0
2016-12-18T06:06:21.019Z,0
2016-12-18T06:07:31.041Z,0
2016-12-18T06:08:40.757Z,0
2016-12-18T06:09:51.113Z,0
2016-12-18T06:11:00.856Z,0
2016-12-18T06:12:10.893Z,0
2016-12-18T06:13:20.900Z,0
2016-12-18T06:14:30.920Z,0
2016-12-18T06:15:41.238Z,0
2016-12-18T06:16:50.626Z,0
2016-12-18T06:18:00.947Z,0
2016-12-18T06:19:10.668Z,0
2016-12-18T06:20:20.985Z,0
2016-12-18T06:21:31.299Z,0
2016-12-18T06:22:41.638Z,0
2016-12-18T06:23:51.649Z,0
2016-12-18T06:25:01.969Z,0
2016-12-18T06:26:12.289Z,0
2016-12-18T06:27:22.610Z,0
2016-12-18T06:28:32.936Z,0
2016-12-18T06:29:43.252Z,0
2016-12-18T06:30:53.266Z,0
2016-12-18T06:32:03.306Z,0
2016-12-18T06:33:13.325Z,0
2016-12-18T06:34:23.331Z,0
2016-12-18T06:35:33.666Z,0
2016-12-18T06:36:43.978Z,0
2016-12-18T06:37:54.300Z,0
2016-12-18T06:39:04.621Z,0
2016-12-18T06:40:14.642Z,0
2016-12-18T06:41:24.355Z,0
2016-12-18T06:42:34.672Z,0
2016-12-18T06:43:44.681Z,0
2016-12-18T06:44:54.697Z,0
2016-12-18T06:46:05.016Z,0
2016-12-18T06:47:14.753Z,0
2016-12-18T06:48:24.453Z,0
2016-12-18T06:49:34.151Z,0
2016-12-18T06:50:44.462Z,0
2016-12-18T06:51:54.470Z,0
2016-12-18T06:53:04.791Z,0
2016-12-18T06:54:14.178Z,0
2016-12-18T06:55:24.514Z,0
2016-12-18T06:56:34.517Z,0
2016-12-18T06:57:44.528Z,0
2016-12-18T06:58:54.845Z,0
2016-12-18T07:00:05.175Z,5
2016-12-18T07:01:15.530Z,5
2016-12-18T07:02:25.230Z,5
2016-12-18T07:03:35.256Z,5
2016-12-18T07:04:45.597Z,5
2016-12-18T07:05:55.619Z,5
2016-12-18T07:07:05.636Z,5
2016-12-18T07:08:16.007Z,5
2016-12-18T07:09:26.039Z,5
2016-12-18T07:10:36.052Z,5
2016-12-18T07:11:46.067Z,5
2016-12-18T07:12:56.404Z,5
2016-12-18T07:14:06.735Z,5
2016-12-18T07:15:17.102Z,10
2016-12-18T07:16:27.155Z,10
2016-12-18T07:17:37.511Z,10
2016-12-18T07:18:47.858Z,10
2016-12-18T07:19:57.906Z,10
2016-12-18T07:21:07.928Z,10
2016-12-18T07:22:17.968Z,10
2016-12-18T07:23:28.288Z,10
2016-12-18T07:24:38.609Z,10
2016-12-18T07:25:48.614Z,10
2016-12-18T07:26:58.941Z,15
2016-12-18T07:28:09.265Z,15
2016-12-18T07:29:19.592Z,15
2016-12-18T07:30:29.599Z,15
2016-12-18T07:31:39.860Z,15
2016-12-18T07:32:50.180Z,15
2016-12-18T07:34:00.190Z,20
2016-12-18T07:35:10.451Z,20
2016-12-18T07:36:20.191Z,20
2016-12-18T07:37:30.209Z,20
2016-12-18T07:38:40.247Z,20
2016-12-18T07:39:50.563Z,20
2016-12-18T07:41:00.609Z,25
2016-12-18T07:42:10.650Z,25
2016-12-18T07:43:21.012Z,25
2016-12-18T07:44:31.368Z,25
2016-12-18T07:45:41.692Z,25
2016-12-18T07:46:51.393Z,25
2016-12-18T07:48:01.799Z,25
2016-12-18T07:49:11.491Z,25
2016-12-18T07:50:21.827Z,25
2016-12-18T07:51:32.184Z,25
2016-12-18T07:52:42.510Z,30
2016-12-18T07:53:52.521Z,30
2016-12-18T07:55:02.869Z,30
2016-12-18T07:56:12.575Z,30
2016-12-18T07:57:22.903Z,30
2016-12-18T07:58:33.225Z,30
2016-12-18T07:59:43.240Z,30
2016-12-18T08:00:53.260Z,30
2016-12-18T08:02:02.962Z,30
2016-12-18T08:03:12.990Z,30
2016-12-18T08:04:23.007Z,30
2016-12-18T08:05:33.344Z,30
2016-12-18T08:06:43.378Z,25
2016-12-18T08:07:53.109Z,25
2016-12-18T08:09:02.501Z,25
2016-12-18T08:10:12.203Z,25
2016-12-18T08:11:22.530Z,25
2016-12-18T08:12:32.858Z,25
2016-12-18T08:13:43.193Z,30
2016-12-18T08:14:53.525Z,30
2016-12-18T08:16:03.873Z,30
2016-12-18T08:17:14.223Z,30
2016-12-18T08:18:24.240Z,30
2016-12-18T08:19:34.568Z,30
2016-12-18T08:20:44.904Z,30
2016-12-18T08:21:55.230Z,30
2016-12-18T08:23:04.947Z,30
2016-12-18T08:24:15.274Z,30
2016-12-18T08:25:25.599Z,30
2016-12-18T08:26:35.317Z,25
2016-12-18T08:27:45.328Z,30
2016-12-18T08:28:55.361Z,30
2016-12-18T08:30:05.377Z,30
2016-12-18T08:31:15.400Z,30
2016-12-18T08:32:25.416Z,30
2016-12-18T08:33:35.739Z,35
2016-12-18T08:34:45.746Z,35
2016-12-18T08:35:55.790Z,35
2016-12-18T08:37:05.802Z,35
2016-12-18T08:38:15.830Z,35
2016-12-18T08:39:25.881Z,30
2016-12-18T08:40:35.908Z,30
2016-12-18T08:41:45.350Z,30
2016-12-18T08:42:55.411Z,30
2016-12-18T08:44:05.732Z,35
2016-12-18T08:45:15.766Z,35
2016-12-18T08:46:25.482Z,40
2016-12-18T08:47:35.512Z,40
2016-12-18T08:48:45.526Z,40
2016-12-18T08:49:55.867Z,45
2016-12-18T08:51:06.189Z,40
2016-12-18T08:52:16.229Z,40
2016-12-18T08:53:25.938Z,40
2016-12-18T08:54:36.275Z,40
2016-12-18T08:55:46.650Z,45
2016-12-18T08:56:56.362Z,45
2016-12-18T08:58:06.697Z,45
2016-12-18T08:59:16.706Z,45
2016-12-18T09:00:26.435Z,50
2016-12-18T09:01:36.474Z,50
2016-12-18T09:02:46.481Z,55
2016-12-18T09:03:56.509Z,55
2016-12-18T09:05:06.520Z,55
2016-12-18T09:06:16.522Z,60
2016-12-18T09:07:25.929Z,60
2016-12-18T09:08:36.262Z,65
2016-12-18T09:09:46.278Z,65
2016-12-18T09:10:56.319Z,70
2016-12-18T09:12:06.666Z,65
2016-12-18T09:13:16.697Z,65
2016-12-18T09:14:26.721Z,70
2016-12-18T09:15:37.053Z,70
2016-12-18T09:16:47.377Z,70
2016-12-18T09:17:57.394Z,70
2016-12-18T09:19:07.405Z,70
2016-12-18T09:20:17.443Z,70
2016-12-18T09:21:27.779Z,70
2016-12-18T09:22:38.106Z,75
2016-12-18T09:23:48.143Z,75
2016-12-18T09:24:58.471Z,75
2016-12-18T09:26:08.838Z,80
2016-12-18T09:27:18.919Z,80
2016-12-18T09:28:28.931Z,80
2016-12-18T09:29:38.647Z,85
2016-12-18T09:30:48.981Z,85
2016-12-18T09:31:58.997Z,80
2016-12-18T09:33:09.353Z,85
2016-12-18T09:34:19.699Z,85
2016-12-18T09:35:29.712Z,85
2016-12-18T09:36:39.758Z,85
2016-12-18T09:37:49.782Z,85
2016-12-18T09:38:59.809Z,85
2016-12-18T09:40:10.157Z,85
2016-12-18T09:41:19.571Z,85
2016-12-18T09:42:29.902Z,85
2016-12-18T09:43:39.928Z,85
2016-12-18T09:44:49.941Z,85
2016-12-18T09:45:59.988Z,85
2016-12-18T09:47:10.000Z,85
2016-12-18T09:48:20.019Z,85
2016-12-18T09:49:30.353Z,85
2016-12-18T09:50:40.085Z,90
2016-12-18T09:51:49.793Z,90
2016-12-18T09:53:00.117Z,90
2016-12-18T09:54:10.435Z,95
2016-12-18T09:55:20.471Z,95
2016-12-18T09:56:30.803Z,95
2016-12-18T09:57:41.156Z,100
2016-12-18T09:58:51.176Z,105
2016-12-18T10:00:01.503Z,105
2016-12-18T10:01:11.224Z,105
2016-12-18T10:02:21.548Z,105
2016-12-18T10:03:31.875Z,100
2016-12-18T10:04:42.181Z,100
2016-12-18T10:05:51.898Z,100
2016-12-18T10:07:01.909Z,100
2016-12-18T10:08:12.235Z,100
2016-12-18T10:09:22.261Z,100
2016-12-18T10:10:32.588Z,105
2016-12-18T10:11:42.285Z,110
2016-12-18T10:12:51.986Z,110
2016-12-18T10:14:02.324Z,110
2016-12-18T10:15:12.348Z,110
2016-12-18T10:16:22.673Z,110
2016-12-18T10:17:32.708Z,110
2016-12-18T10:18:43.051Z,110
2016-12-18T10:19:53.387Z,110
2016-12-18T10:21:03.716Z,110
2016-12-18T10:22:13.781Z,110
2016-12-18T10:23:24.118Z,105
2016-12-18T10:24:34.460Z,100
2016-12-18T10:25:44.777Z,95
2016-12-18T10:26:54.822Z,90
2016-12-18T10:28:05.153Z,85
2016-12-18T10:29:15.185Z,90
2016-12-18T10:30:24.873Z,85
2016-12-18T10:31:34.587Z,85
2016-12-18T10:32:44.657Z,90
2016-12-18T10:33:54.986Z,90
2016-12-18T10:35:05.005Z,85
2016-12-18T10:36:14.722Z,85
2016-12-18T10:37:24.741Z,85
2016-12-18T10:38:34.449Z,85
2016-12-18T10:39:43.852Z,80
2016-12-18T10:40:54.165Z,75
2016-12-18T10:42:03.883Z,75
2016-12-18T10:43:13.912Z,70
2016-12-18T10:44:24.236Z,70
2016-12-18T10:45:34.583Z,70
2016-12-18T10:46:44.605Z,70
2016-12-18T10:47:54.939Z,75
2016-12-18T10:49:05.287Z,75
2016-12-18T10:50:15.624Z,75
2016-12-18T10:51:25.995Z,80
2016-12-18T10:52:36.025Z,80
2016-12-18T10:53:46.358Z,80
2016-12-18T10:54:56.688Z,80
2016-12-18T10:56:07.040Z,80
2016-12-18T10:57:17.352Z,80
2016-12-18T10:58:27.099Z,75
2016-12-18T10:59:37.517Z,75
2016-12-18T11:00:47.533Z,75
2016-12-18T11:01:57.245Z,75
2016-12-18T11:03:07.581Z,75
2016-12-18T11:04:17.617Z,75
2016-12-18T11:05:27.964Z,75
2016-12-18T11:06:38.288Z,75
2016-12-18T11:07:48.616Z,75
2016-12-18T11:08:58.314Z,75
2016-12-18T11:10:08.645Z,75
2016-12-18T11:11:18.973Z,75
2016-12-18T11:12:29.015Z,80
2016-12-18T11:13:39.391Z,80
2016-12-18T11:14:49.099Z,80
2016-12-18T11:15:59.441Z,75
2016-12-18T11:17:09.151Z,75
2016-12-18T11:18:19.486Z,70
2016-12-18T11:19:29.199Z,70
2016-12-18T11:20:39.213Z,65
2016-12-18T11:21:49.238Z,65
2016-12-18T11:22:59.256Z,60
2016-12-18T11:24:09.587Z,60
2016-12-18T11:25:19.621Z,60
2016-12-18T11:26:45.514Z,60
2016-12-18T11:27:55.846Z,60
2016-12-18T11:29:06.162Z,60
2016-12-18T11:30:16.485Z,65
2016-12-18T11:31:26.830Z,65
2016-12-18T11:32:37.153Z,65
2016-12-18T11:33:47.169Z,65
2016-12-18T11:34:57.185Z,65
2016-12-18T11:36:07.517Z,65
2016-12-18T11:37:17.233Z,65
2016-12-18T11:38:26.963Z,65
2016-12-18T11:39:37.297Z,60
2016-12-18T11:40:47.888Z,60
2016-12-18T11:41:57.912Z,60
2016-12-18T11:43:07.933Z,55
2016-12-18T11:44:18.271Z,55
2016-12-18T11:45:28.601Z,55
2016-12-18T11:46:38.617Z,50
2016-12-18T11:47:48.644Z,50
2016-12-18T11:48:58.961Z,50
2016-12-18T11:50:09.289Z,50
2016-12-18T11:51:19.349Z,50
2016-12-18T11:52:29.676Z,45
2016-12-18T11:53:40.013Z,50
2016-12-18T11:54:50.346Z,50
2016-12-18T11:56:00.367Z,50
2016-12-18T11:57:10.373Z,50
2016-12-18T11:58:19.789Z,50
2016-12-18T11:59:29.797Z,50
2016-12-18T12:00:39.825Z,55
2016-12-18T12:01:50.176Z,55
2016-12-18T12:02:59.875Z,55
2016-12-18T12:04:10.213Z,55
2016-12-18T12:05:20.545Z,55
2016-12-18T12:06:30.910Z,55
2016-12-18T12:07:41.268Z,55
2016-12-18T12:08:51.291Z,55
2016-12-18T12:10:01.601Z,55
2016-12-18T12:11:11.028Z,55
2016-12-18T12:12:21.363Z,55
2016-12-18T12:13:31.688Z,55
2016-12-18T12:14:41.739Z,55
2016-12-18T12:15:51.447Z,50
2016-12-18T12:17:01.463Z,50
2016-12-18T12:18:11.490Z,45
2016-12-18T12:19:21.501Z,45
2016-12-18T12:20:31.847Z,45
2016-12-18T12:21:41.564Z,45
2016-12-18T12:22:51.895Z,45
2016-12-18T12:24:02.238Z,45
2016-12-18T12:25:12.555Z,45
2016-12-18T12:26:22.590Z,45
2016-12-18T12:27:32.614Z,40
2016-12-18T12:28:42.635Z,40
2016-12-18T12:29:52.669Z,40
2016-12-18T12:31:03.024Z,40
2016-12-18T12:32:13.053Z,40
2016-12-18T12:33:23.076Z,40
2016-12-18T12:34:34.300Z,35
2016-12-18T12:35:44.344Z,35
2016-12-18T12:36:54.357Z,35
2016-12-18T12:38:04.372Z,40
2016-12-18T12:39:14.716Z,40
2016-12-18T12:40:24.423Z,45
2016-12-18T12:41:34.753Z,45
2016-12-18T12:42:44.465Z,45
2016-12-18T12:43:54.798Z,45
2016-12-18T12:45:05.130Z,45
2016-12-18T12:46:14.836Z,50
2016-12-18T12:47:25.159Z,50
2016-12-18T12:48:35.185Z,45
2016-12-18T12:49:45.519Z,45
2016-12-18T12:50:55.522Z,45
2016-12-18T12:52:05.580Z,45
2016-12-18T12:53:14.977Z,45
2016-12-18T12:54:25.299Z,40
2016-12-18T12:55:35.326Z,40
2016-12-18T12:56:45.677Z,40
2016-12-18T12:57:56.064Z,40
2016-12-18T12:59:06.397Z,40
2016-12-18T13:00:16.721Z,40
2016-12-18T13:01:26.754Z,40
2016-12-18T13:02:37.089Z,40
2016-12-18T13:03:47.452Z,40
2016-12-18T13:04:57.790Z,40
2016-12-18T13:06:08.174Z,40
2016-12-18T13:07:18.518Z,40
2016-12-18T13:08:28.863Z,40
2016-12-18T13:09:39.196Z,40
2016-12-18T13:10:49.222Z,40
2016-12-18T13:11:59.549Z,40
2016-12-18T13:13:09.260Z,40
2016-12-18T13:14:18.697Z,40
2016-12-18T13:15:28.095Z,40
2016-12-18T13:16:38.462Z,40
2016-12-18T13:17:48.173Z,40
2016-12-18T13:18:58.201Z,40
2016-12-18T13:20:08.232Z,40
2016-12-18T13:21:18.256Z,40
2016-12-18T13:22:28.294Z,40
2016-12-18T13:23:38.621Z,35
2016-12-18T13:24:48.648Z,35
2016-12-18T13:25:58.691Z,35
2016-12-18T13:27:08.078Z,35
2016-12-18T13:28:18.099Z,30
2016-12-18T13:29:28.444Z,30
2016-12-18T13:30:38.481Z,30
2016-12-18T13:31:48.494Z,30
2016-12-18T13:32:58.828Z,30
2016-12-18T13:34:08.846Z,30
2016-12-18T13:35:18.889Z,25
2016-12-18T13:36:28.936Z,25
2016-12-18T13:37:38.949Z,25
2016-12-18T13:38:48.977Z,25
2016-12-18T13:39:59.020Z,25
2016-12-18T13:41:09.357Z,25
2016-12-18T13:42:19.413Z,25
2016-12-18T13:43:29.427Z,25
2016-12-18T13:44:39.765Z,20
2016-12-18T13:45:49.781Z,20
2016-12-18T13:46:59.813Z,20
2016-12-18T13:48:10.155Z,20
2016-12-18T13:49:20.167Z,20
2016-12-18T13:50:30.493Z,20
2016-12-18T13:51:40.217Z,20
2016-12-18T13:52:50.547Z,20
2016-12-18T13:54:00.907Z,20
2016-12-18T13:55:11.221Z,20
2016-12-18T13:56:21.571Z,15
2016-12-18T13:57:31.930Z,15
2016-12-18T13:58:41.953Z,15
2016-12-18T13:59:52.287Z,15
2016-12-18T14:01:02.624Z,15
2016-12-18T14:02:12.952Z,15
2016-12-18T14:03:22.992Z,15
2016-12-18T14:04:33.363Z,15
2016-12-18T14:05:43.081Z,15
2016-12-18T14:06:53.113Z,15
2016-12-18T14:08:03.140Z,15
2016-12-18T14:09:13.476Z,15
2016-12-18T14:10:23.187Z,15
2016-12-18T14:11:33.529Z,15
2016-12-18T14:12:42.938Z,15
2016-12-18T14:13:52.640Z,15
2016-12-18T14:15:02.674Z,15
2016-12-18T14:16:12.694Z,15
2016-12-18T14:17:22.707Z,15
2016-12-18T14:18:32.720Z,10
2016-12-18T14:19:42.989Z,10
2016-12-18T14:20:53.037Z,10
2016-12-18T14:22:03.371Z,10
2016-12-18T14:23:13.382Z,10
2016-12-18T14:24:23.703Z,10
2016-12-18T14:25:33.757Z,10
2016-12-18T14:26:43.794Z,10
2016-12-18T14:27:53.818Z,10
2016-12-18T14:29:04.154Z,5
2016-12-18T14:30:14.170Z,5
2016-12-18T14:31:24.507Z,5
2016-12-18T14:32:34.204Z,5
2016-12-18T14:33:44.304Z,5
2016-12-18T14:34:54.390Z,5
2016-12-18T14:36:04.742Z,5
2016-12-18T14:37:14.786Z,5
2016-12-18T14:38:24.859Z,5
2016-12-18T14:39:34.895Z,5
2016-12-18T14:40:45.237Z,5
2016-12-18T14:41:55.569Z,5
2016-12-18T14:43:05.904Z,5
2016-12-18T14:44:16.251Z,0
2016-12-18T14:45:25.954Z,0
2016-12-18T14:46:35.654Z,0
2016-12-18T14:47:45.366Z,0
2016-12-18T14:48:55.711Z,0
2016-12-18T14:50:06.038Z,0
2016-12-18T14:51:16.066Z,0
2016-12-18T14:52:26.398Z,0
2016-12-18T14:53:36.419Z,0
2016-12-18T14:54:46.442Z,0
2016-12-18T14:55:56.774Z,0
2016-12-18T14:57:06.832Z,0
2016-12-18T14:58:17.192Z,0
2016-12-18T14:59:26.912Z,0
2016-12-18T15:00:36.946Z,0
2016-12-18T15:01:47.327Z,0
2016-12-18T15:02:57.708Z,0
2016-12-18T15:04:07.754Z,0
2016-12-18T15:05:18.089Z,0
2016-12-18T15:06:28.452Z,0
2016-12-18T15:07:38.475Z,0
2016-12-18T15:08:48.885Z,0
2016-12-18T15:09:58.294Z,0
2016-12-18T15:11:08.636Z,0
2016-12-18T15:12:18.989Z,0
2016-12-18T15:13:28.700Z,0
2016-12-18T15:14:39.040Z,0
2016-12-18T15:15:49.069Z,0
2016-12-18T15:16:59.395Z,0
2016-12-18T15:18:09.410Z,0
2016-12-18T15:19:19.748Z,0
2016-12-18T15:20:29.471Z,0
2016-12-18T15:21:39.809Z,0
2016-12-18T15:22:50.128Z,0
2016-12-18T15:24:00.465Z,0
2016-12-18T15:25:10.793Z,0
2016-12-18T15:26:20.511Z,0
2016-12-18T15:27:30.580Z,0
2016-12-18T15:28:40.636Z,0
2016-12-18T15:29:51.003Z,0
2016-12-18T15:31:01.339Z,0
2016-12-18T15:32:11.397Z,0
2016-12-18T15:33:21.773Z,0
2016-12-18T15:34:31.824Z,0
2016-12-18T15:35:41.871Z,0
2016-12-18T15:36:51.892Z,0
2016-12-18T15:38:02.224Z,0
2016-12-18T15:39:12.548Z,0
2016-12-18T15:40:22.563Z,0
2016-12-18T15:41:32.909Z,0
2016-12-18T15:42:43.253Z,0
2016-12-18T15:43:53.307Z,0
2016-12-18T15:45:03.719Z,0
2016-12-18T15:46:14.074Z,0
2016-12-18T15:47:24.097Z,0
2016-12-18T15:48:34.419Z,0
2016-12-18T15:49:44.786Z,0
2016-12-18T15:50:54.804Z,0
2016-12-18T15:52:04.834Z,0
2016-12-18T15:53:15.177Z,0
2016-12-18T15:54:24.905Z,0
2016-12-18T15:55:35.229Z,0
2016-12-18T15:56:44.923Z,0
2016-12-18T15:57:55.254Z,0
2016-12-18T15:59:05.598Z,0
2016-12-18T16:00:14.997Z,0
2016-12-18T16:01:25.045Z,0
2016-12-18T16:02:35.431Z,0
2016-12-18T16:03:45.796Z,0
2016-12-18T16:04:56.137Z,0
2016-12-18T16:06:06.203Z,0
2016-12-18T16:07:16.263Z,0
2016-12-18T16:08:26.653Z,0
2016-12-18T16:09:36.772Z,0
2016-12-18T16:10:46.480Z,0
2016-12-18T16:11:56.819Z,0
2016-12-18T16:13:06.845Z,0
2016-12-18T16:14:16.848Z,0
2016-12-18T16:15:27.210Z,0
2016-12-18T16:16:36.922Z,0
2016-12-18T16:17:46.666Z,0
2016-12-18T16:18:57.008Z,0
2016-12-18T16:20:07.044Z,0
2016-12-18T16:21:17.063Z,0
2016-12-18T16:22:27.411Z,0
2016-12-18T16:23:37.120Z,0
2016-12-18T16:24:47.141Z,0
2016-12-18T16:25:57.473Z,0
2016-12-18T16:27:07.810Z,0
2016-12-18T16:28:18.153Z,0
2016-12-18T16:29:28.493Z,0
2016-12-18T16:30:38.505Z,0
2016-12-18T16:31:48.213Z,0
2016-12-18T16:32:58.238Z,0
2016-12-18T16:34:08.286Z,0
2016-12-18T16:35:17.997Z,0
2016-12-18T16:36:28.320Z,0
2016-12-18T16:37:38.356Z,0
2016-12-18T16:38:48.382Z,0
2016-12-18T16:39:58.425Z,0
2016-12-18T16:41:08.443Z,0
2016-12-18T16:42:18.462Z,0
2016-12-18T16:43:28.516Z,0
2016-12-18T16:44:38.889Z,0
2016-12-18T16:45:49.261Z,0
2016-12-18T16:46:59.604Z,0
2016-12-18T16:48:09.928Z,0
2016-12-18T16:49:20.258Z,0
2016-12-18T16:50:30.276Z,0
2016-12-18T16:51:40.605Z,0
2016-12-18T16:52:50.308Z,0
2016-12-18T16:54:00.328Z,0
2016-12-18T16:55:10.673Z,0
2016-12-18T16:56:21.009Z,0
2016-12-18T16:57:31.335Z,0
2016-12-18T16:58:41.656Z,0
2016-12-18T16:59:51.684Z,0
2016-12-18T17:01:01.702Z,0
2016-12-18T17:02:12.042Z,0
2016-12-18T17:03:22.379Z,0
2016-12-18T17:04:32.406Z,0
2016-12-18T17:05:42.489Z,0
2016-12-18T17:06:52.843Z,0
2016-12-18T17:08:03.180Z,0
2016-12-18T17:09:13.531Z,0
2016-12-18T17:10:23.584Z,0
2016-12-18T17:11:33.905Z,0
2016-12-18T17:12:43.948Z,0
2016-12-18T17:13:54.293Z,0
2016-12-18T17:15:04.640Z,0
2016-12-18T17:16:15.004Z,0
2016-12-18T17:17:24.706Z,0
2016-12-18T17:18:35.045Z,0
2016-12-18T17:19:45.423Z,0
2016-12-18T17:20:55.748Z,0
2016-12-18T17:22:05.771Z,0
2016-12-18T17:23:15.826Z,0
2016-12-18T17:24:25.569Z,0
2016-12-18T17:25:35.601Z,0
2016-12-18T17:26:45.353Z,0
2016-12-18T17:27:55.408Z,0
2016-12-18T17:29:05.768Z,0
2016-12-18T17:30:16.115Z,0